Time;durP1;ratioP1;P1;durP2;ratioP2;P2;SDS_P1;SDS_P2;PMS_P1;PMS_P2;Temp;Humidity;BMP_temperature;BMP_pressure;BME280_temperature;BME280_humidity;BME280_pressure;Samples;Min_cycle;Max_cycle;Signal;HPM_P1;HPM_P2
2021/11/29 00:01:45;;;;;;;3.22;0.82;;;;;;;;;;21150202;28;20502;-69
2021/11/29 00:11:47;;;;;;;2.33;0.85;;;;;;;;;;21148377;28;20079;-70
2021/11/29 00:21:49;;;;;;;3.25;0.93;;;;;;;;;;21165582;28;20146;-71
2021/11/29 00:31:51;;;;;;;2.25;1.00;;;;;;;;;;21165249;28;20044;-71
2021/11/29 00:41:53;;;;;;;1.35;0.70;;;;;;;;;;21165375;28;20044;-71
2021/11/29 00:51:55;;;;;;;3.25;1.02;;;;;;;;;;21163429;28;20048;-70
2021/11/29 01:01:57;;;;;;;2.72;1.10;;;;;;;;;;21145301;27;20051;-68
2021/11/29 01:11:59;;;;;;;2.28;0.90;;;;;;;;;;21144224;28;20054;-68
2021/11/29 01:22:01;;;;;;;2.03;0.93;;;;;;;;;;21154987;28;20055;-70
2021/11/29 01:32:04;;;;;;;1.42;0.90;;;;;;;;;;21162596;28;20543;-71
2021/11/29 01:42:07;;;;;;;1.75;0.80;;;;;;;;;;21161719;28;20054;-71
2021/11/29 01:52:11;;;;;;;2.25;0.70;;;;;;;;;;21161647;28;20054;-70
2021/11/29 02:02:13;;;;;;;1.15;0.60;;;;;;;;;;21160511;28;20058;-73
2021/11/29 02:12:15;;;;;;;1.42;0.70;;;;;;;;;;21165262;28;20051;-69
2021/11/29 02:22:19;;;;;;;3.95;1.05;;;;;;;;;;21174468;28;20168;-68
2021/11/29 02:32:22;;;;;;;1.05;0.70;;;;;;;;;;21174201;28;20043;-69
2021/11/29 02:42:26;;;;;;;0.73;0.55;;;;;;;;;;21173278;28;20054;-70
2021/11/29 02:52:31;;;;;;;0.93;0.60;;;;;;;;;;21172171;28;20504;-70
2021/11/29 03:02:36;;;;;;;0.50;0.40;;;;;;;;;;21170223;28;20048;-69
2021/11/29 03:12:39;;;;;;;1.33;0.65;;;;;;;;;;21172448;28;20109;-69
2021/11/29 03:22:44;;;;;;;0.95;0.55;;;;;;;;;;21170064;28;20056;-69
2021/11/29 03:32:51;;;;;;;2.20;0.60;;;;;;;;;;21171639;28;20074;-70
2021/11/29 03:42:57;;;;;;;1.52;0.70;;;;;;;;;;21198273;28;20073;-69
2021/11/29 03:53:02;;;;;;;1.38;0.60;;;;;;;;;;21180429;28;20043;-71
2021/11/29 04:03:05;;;;;;;1.95;0.60;;;;;;;;;;21167763;28;20047;-67
2021/11/29 04:13:09;;;;;;;1.08;0.57;;;;;;;;;;21165955;28;20083;-70
2021/11/29 04:23:13;;;;;;;0.70;0.50;;;;;;;;;;21165191;28;20052;-70
2021/11/29 04:33:17;;;;;;;1.30;0.63;;;;;;;;;;21163177;28;20047;-66
2021/11/29 04:43:21;;;;;;;0.70;0.50;;;;;;;;;;21164065;28;20055;-70
2021/11/29 04:53:23;;;;;;;1.30;0.40;;;;;;;;;;21145057;28;20079;-66
2021/11/29 05:03:26;;;;;;;0.50;0.40;;;;;;;;;;21163515;28;20055;-70
2021/11/29 05:13:28;;;;;;;0.93;0.50;;;;;;;;;;21162620;28;20043;-70
2021/11/29 05:23:31;;;;;;;0.60;0.50;;;;;;;;;;21162435;28;20385;-69
2021/11/29 05:33:34;;;;;;;0.80;0.45;;;;;;;;;;21162115;28;20048;-70
2021/11/29 05:43:37;;;;;;;0.77;0.50;;;;;;;;;;21161513;28;20052;-70
2021/11/29 05:53:39;;;;;;;0.55;0.50;;;;;;;;;;21158631;28;20403;-70
2021/11/29 06:03:44;;;;;;;1.20;0.43;;;;;;;;;;21176855;28;20101;-70
2021/11/29 06:13:46;;;;;;;1.00;0.47;;;;;;;;;;21176206;28;20048;-68
2021/11/29 06:23:49;;;;;;;1.50;0.63;;;;;;;;;;21157877;28;20095;-69
2021/11/29 06:33:51;;;;;;;0.65;0.50;;;;;;;;;;21174142;28;20136;-71
2021/11/29 06:43:54;;;;;;;1.70;0.50;;;;;;;;;;21173393;28;20051;-69
2021/11/29 06:53:57;;;;;;;9.05;4.75;;;;;;;;;;21172429;28;20079;-70
2021/11/29 07:04:00;;;;;;;0.93;0.50;;;;;;;;;;21152079;28;20060;-71
2021/11/29 07:14:04;;;;;;;5.53;0.90;;;;;;;;;;21170182;28;20058;-69
2021/11/29 07:24:12;;;;;;;2.75;0.90;;;;;;;;;;21152606;28;20460;-65
2021/11/29 07:34:15;;;;;;;2.70;0.60;;;;;;;;;;21168398;28;20059;-65
2021/11/29 07:44:17;;;;;;;0.82;0.60;;;;;;;;;;21169444;28;20434;-66
2021/11/29 07:54:19;;;;;;;1.42;0.88;;;;;;;;;;21166148;28;20048;-66
2021/11/29 08:04:23;;;;;;;2.55;0.70;;;;;;;;;;21165781;28;20060;-65
2021/11/29 08:14:26;;;;;;;3.80;0.75;;;;;;;;;;21165376;28;20096;-70
2021/11/29 08:24:28;;;;;;;2.88;0.73;;;;;;;;;;21165254;28;20054;-70
2021/11/29 08:34:31;;;;;;;3.30;0.80;;;;;;;;;;21165365;28;20043;-70
2021/11/29 08:44:34;;;;;;;3.08;0.90;;;;;;;;;;21163468;28;20059;-70
2021/11/29 08:54:40;;;;;;;2.10;0.75;;;;;;;;;;21163739;28;20183;-71
2021/11/29 09:04:43;;;;;;;4.47;1.05;;;;;;;;;;21162667;28;20097;-65
2021/11/29 09:14:45;;;;;;;0.75;0.50;;;;;;;;;;21181726;28;20128;-66
2021/11/29 09:24:48;;;;;;;2.72;1.08;;;;;;;;;;21173254;28;20052;-66
2021/11/29 09:34:51;;;;;;;2.40;0.55;;;;;;;;;;21160551;28;20082;-66
2021/11/29 09:44:54;;;;;;;33.10;3.85;;;;;;;;;;21159455;28;20054;-69
2021/11/29 09:54:58;;;;;;;2.83;0.70;;;;;;;;;;21129586;28;20043;-60
2021/11/29 10:05:00;;;;;;;3.38;0.90;;;;;;;;;;21161068;28;20060;-62
2021/11/29 10:15:12;;;;;;;1.10;0.63;;;;;;;;;;21166683;28;20070;-65
2021/11/29 10:25:19;;;;;;;3.45;0.63;;;;;;;;;;21167856;28;20165;-63
2021/11/29 10:35:33;;;;;;;1.50;0.50;;;;;;;;;;21162314;28;20040;-62
2021/11/29 10:45:40;;;;;;;3.65;0.70;;;;;;;;;;21166487;28;20104;-64
2021/11/29 10:56:03;;;;;;;1.73;0.80;;;;;;;;;;21161333;28;20048;-65
2021/11/29 11:06:06;;;;;;;1.98;1.10;;;;;;;;;;21113131;27;20058;-58
2021/11/29 11:16:09;;;;;;;0.70;0.45;;;;;;;;;;21254979;27;20122;-60
2021/11/29 11:26:31;;;;;;;4.10;1.30;;;;;;;;;;21235481;27;20137;-61
2021/11/29 11:36:34;;;;;;;1.50;0.70;;;;;;;;;;21254592;27;20052;-61
2021/11/29 11:46:37;;;;;;;1.02;0.60;;;;;;;;;;21251729;27;20055;-58
2021/11/29 11:56:39;;;;;;;1.00;0.50;;;;;;;;;;21251802;27;20043;-61
2021/11/29 12:06:44;;;;;;;3.28;0.88;;;;;;;;;;21178911;27;20469;-61
2021/11/29 12:16:53;;;;;;;2.03;0.80;;;;;;;;;;21165903;28;20048;-57
2021/11/29 12:26:55;;;;;;;1.45;0.70;;;;;;;;;;21164634;28;20076;-58
2021/11/29 12:36:58;;;;;;;2.45;1.00;;;;;;;;;;21163658;28;20073;-59
2021/11/29 12:47:26;;;;;;;1.13;0.60;;;;;;;;;;21163838;28;20145;-55
2021/11/29 12:57:40;;;;;;;2.10;0.60;;;;;;;;;;21158014;28;20054;-58
2021/11/29 13:08:04;;;;;;;4.18;0.73;;;;;;;;;;21162392;28;20095;-54
2021/11/29 13:18:06;;;;;;;1.27;0.70;;;;;;;;;;21162220;28;20047;-55
2021/11/29 13:28:10;;;;;;;0.60;0.45;;;;;;;;;;21161972;28;20051;-55
2021/11/29 13:38:12;;;;;;;1.27;0.60;;;;;;;;;;21161155;28;20065;-56
2021/11/29 13:48:17;;;;;;;1.40;0.50;;;;;;;;;;21160434;28;20138;-58
2021/11/29 13:58:24;;;;;;;2.00;0.50;;;;;;;;;;21144337;28;20050;-57
2021/11/29 14:08:31;;;;;;;1.35;0.50;;;;;;;;;;21250927;27;20062;-56
2021/11/29 14:18:35;;;;;;;3.55;1.55;;;;;;;;;;21261141;27;20047;-58
2021/11/29 14:28:38;;;;;;;1.33;0.60;;;;;;;;;;21259721;27;20047;-56
2021/11/29 14:38:48;;;;;;;2.30;0.70;;;;;;;;;;21258663;27;20040;-56
2021/11/29 14:49:09;;;;;;;2.10;0.85;;;;;;;;;;21257174;27;20051;-56
2021/11/29 14:59:24;;;;;;;2.28;0.60;;;;;;;;;;21246914;27;20419;-55
2021/11/29 15:09:26;;;;;;;3.25;0.50;;;;;;;;;;21170815;28;20051;-56
2021/11/29 15:19:41;;;;;;;4.32;0.93;;;;;;;;;;21169130;28;20430;-59
2021/11/29 15:29:46;;;;;;;2.97;1.20;;;;;;;;;;21169588;28;20047;-57
2021/11/29 15:39:50;;;;;;;3.53;0.70;;;;;;;;;;21168503;28;20130;-58
2021/11/29 15:49:54;;;;;;;4.25;0.80;;;;;;;;;;21168379;28;20479;-58
2021/11/29 15:59:57;;;;;;;2.00;1.05;;;;;;;;;;21150547;28;20047;-54
2021/11/29 16:09:59;;;;;;;4.20;0.90;;;;;;;;;;21166382;28;20059;-64
2021/11/29 16:20:02;;;;;;;3.40;0.88;;;;;;;;;;21165368;28;20039;-60
2021/11/29 16:30:05;;;;;;;2.63;1.08;;;;;;;;;;21163946;28;20048;-62
2021/11/29 16:40:07;;;;;;;2.13;0.82;;;;;;;;;;21163933;28;20067;-59
2021/11/29 16:50:10;;;;;;;2.63;1.38;;;;;;;;;;21164238;28;20048;-63
2021/11/29 17:00:14;;;;;;;2.78;1.17;;;;;;;;;;21180942;27;20042;-61
2021/11/29 17:10:17;;;;;;;1.20;0.70;;;;;;;;;;21229133;28;20382;-59
2021/11/29 17:20:20;;;;;;;2.63;1.23;;;;;;;;;;21246919;28;20043;-56
2021/11/29 17:30:22;;;;;;;3.22;1.17;;;;;;;;;;21245669;28;20058;-55
2021/11/29 17:40:25;;;;;;;4.47;1.83;;;;;;;;;;21246839;27;20062;-56
2021/11/29 17:50:29;;;;;;;3.42;1.30;;;;;;;;;;21261779;27;20130;-58
2021/11/29 18:00:32;;;;;;;8.40;1.90;;;;;;;;;;21240636;27;20049;-58
2021/11/29 18:20:42;;;;;;;6.65;1.40;;;;;;;;;;21090178;28;20094;-60
2021/11/29 18:30:44;;;;;;;2.75;1.55;;;;;;;;;;21089057;28;20059;-60
2021/11/29 18:40:46;;;;;;;2.90;1.25;;;;;;;;;;21089107;28;20467;-61
2021/11/29 18:50:51;;;;;;;8.25;1.70;;;;;;;;;;21086948;28;20499;-62
2021/11/29 19:01:00;;;;;;;3.08;1.58;;;;;;;;;;21067549;28;20130;-62
2021/11/29 19:11:07;;;;;;;3.60;1.52;;;;;;;;;;21086162;28;20048;-61
2021/11/29 19:21:10;;;;;;;3.90;1.65;;;;;;;;;;21086840;28;20059;-61
2021/11/29 19:31:12;;;;;;;6.10;3.10;;;;;;;;;;21084129;28;20488;-61
2021/11/29 19:51:29;;;;;;;10.60;3.03;;;;;;;;;;21082759;28;20507;-60
2021/11/29 20:01:31;;;;;;;3.55;1.73;;;;;;;;;;21081930;28;20056;-61
2021/11/29 20:11:33;;;;;;;2.58;1.70;;;;;;;;;;21081022;28;20075;-61
2021/11/29 20:21:37;;;;;;;3.47;2.13;;;;;;;;;;21062167;28;20381;-61
2021/11/29 20:31:43;;;;;;;3.15;2.25;;;;;;;;;;21081174;28;20106;-61
2021/11/29 20:41:46;;;;;;;3.95;2.13;;;;;;;;;;21079791;28;20040;-61
2021/11/29 20:51:49;;;;;;;8.43;2.30;;;;;;;;;;21079670;28;20131;-61
2021/11/29 21:01:51;;;;;;;3.35;2.10;;;;;;;;;;21078453;28;20101;-62
2021/11/29 21:11:53;;;;;;;2.80;1.90;;;;;;;;;;21077974;28;20371;-60
2021/11/29 21:21:56;;;;;;;2.72;1.60;;;;;;;;;;21090026;28;20060;-61
2021/11/29 21:31:58;;;;;;;5.05;2.10;;;;;;;;;;21094306;28;20105;-61
2021/11/29 21:42:01;;;;;;;3.65;2.10;;;;;;;;;;21094511;28;20497;-60
2021/11/29 21:52:03;;;;;;;3.80;2.10;;;;;;;;;;21074335;28;20105;-62
2021/11/29 22:02:06;;;;;;;4.45;2.85;;;;;;;;;;21124950;28;20039;-60
2021/11/29 22:12:08;;;;;;;5.10;2.28;;;;;;;;;;21175423;28;20097;-60
2021/11/29 22:22:11;;;;;;;3.92;2.08;;;;;;;;;;21176058;28;20476;-60
2021/11/29 22:32:13;;;;;;;4.88;2.88;;;;;;;;;;21174092;28;20507;-62
2021/11/29 22:42:16;;;;;;;15.85;7.30;;;;;;;;;;21173094;28;20048;-60
2021/11/29 22:52:18;;;;;;;5.25;2.58;;;;;;;;;;21172928;28;20131;-62
2021/11/29 23:02:20;;;;;;;4.55;3.28;;;;;;;;;;21137083;28;20404;-61
2021/11/29 23:12:22;;;;;;;197.77;17.85;;;;;;;;;;21087085;28;20432;-61
2021/11/29 23:22:25;;;;;;;20.02;3.08;;;;;;;;;;21085589;28;20054;-60
2021/11/29 23:32:27;;;;;;;5.78;2.80;;;;;;;;;;21085110;28;20131;-60
2021/11/29 23:42:31;;;;;;;24.67;4.57;;;;;;;;;;21084494;28;20218;-60
2021/11/29 23:52:41;;;;;;;6.07;2.70;;;;;;;;;;21065798;28;20054;-59
